Time;durP1;ratioP1;P1;durP2;ratioP2;P2;SDS_P1;SDS_P2;PMS_P1;PMS_P2;Temp;Humidity;BMP_temperature;BMP_pressure;BME280_temperature;BME280_humidity;BME280_pressure;Samples;Min_cycle;Max_cycle;Signal;HPM_P1;HPM_P2
2021/06/26 00:01:46;;;;;;;38.50;5.87;;;;;;;21.14;74.93;99553.63;1704745;84;21316;-82
2021/06/26 00:04:52;;;;;;;39.23;5.17;;;;;;;21.11;75.24;99552.75;1769500;81;21328;-82
2021/06/26 00:07:58;;;;;;;36.42;5.33;;;;;;;21.11;75.57;99545.80;1704777;84;21339;-82
2021/06/26 00:11:03;;;;;;;23.27;5.05;;;;;;;21.12;75.67;99543.30;1770702;81;21310;-82
2021/06/26 00:14:09;;;;;;;34.53;5.50;;;;;;;21.10;75.75;99541.34;1735270;82;21272;-82
2021/06/26 00:17:14;;;;;;;26.60;4.55;;;;;;;21.06;75.86;99544.36;1705986;84;21282;-82
2021/06/26 00:20:22;;;;;;;32.15;4.95;;;;;;;21.01;75.63;99545.70;1771877;81;21189;-82
2021/06/26 00:23:27;;;;;;;43.10;6.45;;;;;;;20.97;76.24;99539.55;1705891;84;21209;-82
2021/06/26 00:26:34;;;;;;;19.92;4.60;;;;;;;20.96;76.37;99541.48;1770444;81;21304;-82
2021/06/26 00:29:40;;;;;;;28.15;6.55;;;;;;;20.93;76.22;99542.00;1706048;84;21201;-82
2021/06/26 00:32:45;;;;;;;29.05;5.22;;;;;;;20.86;76.46;99538.61;1772145;81;21217;-82
2021/06/26 00:35:50;;;;;;;46.30;5.75;;;;;;;20.84;76.54;99538.02;1772124;81;21255;-82
2021/06/26 00:38:56;;;;;;;29.65;5.40;;;;;;;20.82;76.78;99538.84;1773605;80;21878;-82
2021/06/26 00:42:00;;;;;;;44.73;5.80;;;;;;;20.77;76.87;99537.41;1780367;80;21302;-82
2021/06/26 00:45:07;;;;;;;41.00;6.85;;;;;;;20.71;77.00;99536.52;1713312;84;21236;-82
2021/06/26 00:48:15;;;;;;;35.83;5.60;;;;;;;20.70;77.12;99542.31;1742174;82;21303;-82
2021/06/26 00:51:20;;;;;;;33.38;4.95;;;;;;;20.65;77.21;99537.02;1713587;84;21196;-82
2021/06/26 00:54:25;;;;;;;39.15;5.47;;;;;;;20.62;77.32;99538.92;1713585;84;21785;-81
2021/06/26 00:57:33;;;;;;;23.65;5.58;;;;;;;20.55;77.50;99538.27;1713623;84;21259;-82
2021/06/26 01:00:38;;;;;;;36.77;5.25;;;;;;;20.51;77.71;99538.50;1713543;84;21284;-82
2021/06/26 01:03:45;;;;;;;23.95;4.60;;;;;;;20.48;77.97;99543.20;1713662;84;21318;-82
2021/06/26 01:06:50;;;;;;;33.85;6.45;;;;;;;20.48;78.07;99536.26;1712879;84;21367;-82
2021/06/26 01:09:55;;;;;;;27.20;5.78;;;;;;;20.47;78.04;99539.27;1712616;84;21311;-82
2021/06/26 01:13:00;;;;;;;35.08;4.75;;;;;;;20.41;78.26;99523.91;1712266;84;21857;-82
2021/06/26 01:16:05;;;;;;;31.33;5.42;;;;;;;20.35;78.55;99524.95;1712135;84;21204;-82
2021/06/26 01:19:11;;;;;;;28.42;4.83;;;;;;;20.31;78.63;99525.73;1712323;84;21351;-82
2021/06/26 01:22:19;;;;;;;30.40;5.78;;;;;;;20.28;78.67;99533.19;1712632;84;21512;-82
2021/06/26 01:25:24;;;;;;;33.23;5.87;;;;;;;20.22;78.80;99528.13;1712729;84;21814;-82
2021/06/26 01:28:29;;;;;;;28.02;5.15;;;;;;;20.20;78.94;99533.66;1713706;84;21201;-82
2021/06/26 01:31:35;;;;;;;37.88;5.55;;;;;;;20.18;78.95;99532.51;1713595;84;21295;-82
2021/06/26 01:34:41;;;;;;;32.83;6.97;;;;;;;20.15;79.15;99539.44;1713535;84;21209;-82
2021/06/26 01:37:48;;;;;;;42.25;6.28;;;;;;;20.16;79.46;99550.83;1713597;84;21263;-82
2021/06/26 01:40:53;;;;;;;47.23;6.62;;;;;;;20.19;79.61;99556.98;1708732;84;21303;-82
2021/06/26 01:43:59;;;;;;;34.67;6.22;;;;;;;20.19;79.78;99559.20;1709064;84;21204;-82
2021/06/26 01:47:05;;;;;;;38.48;6.00;;;;;;;20.22;80.07;99563.38;1709076;84;21280;-82
2021/06/26 01:50:11;;;;;;;40.12;6.60;;;;;;;20.20;80.48;99567.81;1708926;84;21347;-82
2021/06/26 01:53:16;;;;;;;50.73;5.90;;;;;;;20.22;80.65;99561.99;1709042;84;22135;-82
2021/06/26 01:56:22;;;;;;;38.35;6.72;;;;;;;20.26;80.61;99567.33;1709021;84;21272;-82
2021/06/26 01:59:27;;;;;;;37.38;7.12;;;;;;;20.31;80.54;99566.00;1709033;84;21220;-82
2021/06/26 02:02:32;;;;;;;33.50;6.50;;;;;;;20.36;80.51;99561.90;1708988;84;21669;-82
2021/06/26 02:05:37;;;;;;;28.67;5.90;;;;;;;20.40;80.52;99561.67;1708913;84;21902;-82
2021/06/26 02:08:43;;;;;;;36.63;6.33;;;;;;;20.43;80.67;99559.78;1709003;84;21696;-82
2021/06/26 02:11:49;;;;;;;36.50;5.55;;;;;;;20.48;80.86;99561.26;1708926;84;21303;-82
2021/06/26 02:14:54;;;;;;;42.00;5.80;;;;;;;20.54;80.87;99557.43;1708988;84;21141;-82
2021/06/26 02:18:00;;;;;;;38.60;6.17;;;;;;;20.62;80.92;99545.87;1709098;84;21271;-82
2021/06/26 02:21:06;;;;;;;32.08;6.08;;;;;;;20.73;81.07;99542.64;1708951;84;21300;-82
2021/06/26 02:24:14;;;;;;;34.85;6.10;;;;;;;20.80;81.28;99542.45;1708869;84;21783;-82
2021/06/26 02:27:19;;;;;;;31.42;5.55;;;;;;;20.83;81.71;99541.35;1709086;84;21276;-82
2021/06/26 02:30:24;;;;;;;35.00;5.53;;;;;;;20.88;82.17;99541.95;1709088;84;21264;-82
2021/06/26 02:33:30;;;;;;;40.15;7.40;;;;;;;20.89;82.65;99545.05;1709009;84;21269;-82
2021/06/26 02:36:35;;;;;;;40.55;6.12;;;;;;;20.98;82.99;99535.10;1708866;84;21304;-82
2021/06/26 02:39:41;;;;;;;31.95;5.58;;;;;;;21.11;83.09;99543.02;1708977;84;21271;-82
2021/06/26 02:42:46;;;;;;;34.88;6.87;;;;;;;21.24;82.99;99546.48;1713503;84;21814;-82
2021/06/26 02:45:51;;;;;;;40.20;5.87;;;;;;;21.39;82.85;99552.19;1713554;84;21272;-82
2021/06/26 02:48:56;;;;;;;27.17;6.00;;;;;;;21.54;82.67;99548.69;1713518;84;21828;-82
2021/06/26 02:52:01;;;;;;;34.30;5.55;;;;;;;21.82;82.39;99543.31;1713490;84;21296;-82
2021/06/26 02:55:07;;;;;;;35.43;6.53;;;;;;;22.06;81.52;99545.13;1713550;84;21268;-82
2021/06/26 02:58:13;;;;;;;35.20;6.55;;;;;;;22.27;80.91;99541.94;1713529;84;21165;-82
2021/06/26 03:01:18;;;;;;;34.85;6.47;;;;;;;22.57;79.90;99532.28;1713528;84;21276;-82
2021/06/26 03:04:23;;;;;;;40.90;6.92;;;;;;;22.80;78.73;99540.70;1713501;84;21267;-82
2021/06/26 03:07:30;;;;;;;46.28;7.12;;;;;;;23.01;77.92;99538.84;1712661;83;21181;-82
2021/06/26 03:10:34;;;;;;;32.95;6.72;;;;;;;23.23;76.65;99533.55;1713559;84;21268;-82
2021/06/26 03:13:39;;;;;;;42.50;7.10;;;;;;;23.41;75.73;99533.83;1713486;84;21832;-82
2021/06/26 03:16:45;;;;;;;39.15;6.00;;;;;;;23.48;74.68;99527.98;1712194;84;21168;-82
2021/06/26 03:19:52;;;;;;;37.20;6.80;;;;;;;23.47;73.98;99521.53;1713678;84;21806;-82
2021/06/26 03:22:58;;;;;;;40.48;5.95;;;;;;;23.62;73.88;99520.70;1713504;84;21917;-82
2021/06/26 03:26:05;;;;;;;35.48;6.30;;;;;;;24.02;73.08;99518.95;1713672;84;21153;-82
2021/06/26 03:29:11;;;;;;;50.98;7.65;;;;;;;24.40;71.93;99517.44;1713672;84;21311;-82
2021/06/26 03:32:11;;;;;;;39.90;7.12;;;;;;;24.85;70.40;99507.70;1713323;84;21346;-82
2021/06/26 03:35:19;;;;;;;42.73;7.05;;;;;;;25.31;68.86;99515.19;1713642;84;21161;-82
2021/06/26 03:38:25;;;;;;;43.38;6.45;;;;;;;25.66;67.81;99512.64;1713597;84;21696;-82
2021/06/26 03:41:30;;;;;;;47.50;8.20;;;;;;;25.99;66.83;99513.72;1713003;84;21271;-82
2021/06/26 03:44:35;;;;;;;32.83;6.12;;;;;;;26.36;64.99;99522.55;1709062;84;21712;-82
2021/06/26 03:47:41;;;;;;;35.15;6.08;;;;;;;26.55;63.98;99526.25;1709074;84;21700;-82
2021/06/26 03:50:47;;;;;;;29.65;6.10;;;;;;;26.48;63.26;99529.40;1709166;84;21168;-82
2021/06/26 03:53:54;;;;;;;45.90;7.55;;;;;;;26.39;63.80;99522.75;1708810;84;21322;-82
2021/06/26 03:56:59;;;;;;;32.93;6.70;;;;;;;26.35;64.28;99522.25;1709071;84;21160;-82
2021/06/26 04:00:05;;;;;;;35.30;6.87;;;;;;;26.40;64.68;99526.42;1737412;82;21312;-82
2021/06/26 04:03:10;;;;;;;34.05;7.97;;;;;;;26.54;64.35;99525.12;1707594;84;21325;-82
2021/06/26 04:06:16;;;;;;;39.92;7.05;;;;;;;26.67;63.96;99528.59;1706959;84;21896;-82
2021/06/26 04:09:21;;;;;;;40.90;7.62;;;;;;;26.83;64.85;99526.42;1706777;84;21342;-82
2021/06/26 04:12:27;;;;;;;35.25;6.78;;;;;;;27.09;64.34;99522.69;1707608;84;21165;-82
2021/06/26 04:15:33;;;;;;;46.20;7.67;;;;;;;27.30;63.42;99521.23;1707545;84;21731;-82
2021/06/26 04:18:38;;;;;;;49.35;7.00;;;;;;;27.35;62.25;99516.93;1709008;84;21760;-82
2021/06/26 04:21:43;;;;;;;42.03;7.17;;;;;;;27.40;62.19;99521.05;1709059;84;21680;-82
2021/06/26 04:24:48;;;;;;;50.88;7.33;;;;;;;27.46;61.96;99524.02;1709018;84;21204;-82
2021/06/26 04:27:55;;;;;;;46.80;7.95;;;;;;;27.63;61.30;99525.44;1709048;84;21220;-81
2021/06/26 04:31:01;;;;;;;53.45;8.13;;;;;;;27.76;60.12;99524.10;1709066;84;21712;-81
2021/06/26 04:34:06;;;;;;;46.98;7.92;;;;;;;27.95;60.30;99514.77;1709018;84;21200;-81
2021/06/26 04:37:12;;;;;;;40.88;8.53;;;;;;;28.08;58.84;99511.11;1709056;84;21711;-82
2021/06/26 04:40:19;;;;;;;40.58;6.40;;;;;;;28.17;59.54;99503.61;1708837;84;21156;-82
2021/06/26 04:43:27;;;;;;;39.85;8.13;;;;;;;28.31;59.11;99499.39;1706907;84;21815;-82
2021/06/26 04:46:32;;;;;;;47.75;7.40;;;;;;;28.37;58.31;99494.52;1704250;84;21197;-82
2021/06/26 04:49:38;;;;;;;59.65;7.80;;;;;;;28.43;57.89;99489.06;1704234;84;21717;-82
2021/06/26 04:52:45;;;;;;;48.23;7.17;;;;;;;28.46;58.34;99478.57;1704238;84;21161;-82
2021/06/26 04:55:53;;;;;;;54.25;7.97;;;;;;;28.51;59.15;99481.27;1704248;84;21280;-82
2021/06/26 04:58:59;;;;;;;50.97;8.00;;;;;;;28.63;58.98;99471.72;1704491;84;21787;-82
2021/06/26 05:02:06;;;;;;;42.80;7.25;;;;;;;28.71;58.69;99469.57;1702707;84;21700;-82
2021/06/26 05:05:13;;;;;;;49.80;7.17;;;;;;;28.74;58.26;99469.49;1703699;84;21804;-82
2021/06/26 05:08:19;;;;;;;41.42;8.60;;;;;;;28.73;58.54;99469.24;1704176;84;21398;-82
2021/06/26 05:11:24;;;;;;;60.50;8.23;;;;;;;28.85;60.16;99470.11;1704235;84;21803;-82
2021/06/26 05:14:30;;;;;;;54.15;6.97;;;;;;;28.85;60.16;99470.11;1704204;84;21339;-82
2021/06/26 05:17:35;;;;;;;47.98;7.78;;;;;;;28.96;59.18;99449.03;1704274;84;21271;-82
2021/06/26 05:20:40;;;;;;;47.35;7.90;;;;;;;29.12;57.26;99454.52;1704246;84;21673;-82
2021/06/26 05:23:47;;;;;;;44.15;7.67;;;;;;;29.12;57.26;99454.52;1704079;84;21317;-82
2021/06/26 05:26:52;;;;;;;57.20;8.20;;;;;;;29.24;55.44;99462.41;1704238;84;21201;-82
2021/06/26 05:29:57;;;;;;;45.30;6.83;;;;;;;29.32;54.11;99453.19;1704233;84;21263;-82
2021/06/26 05:33:02;;;;;;;52.13;7.92;;;;;;;29.32;54.11;99453.19;1704215;84;21268;-82
2021/06/26 05:36:08;;;;;;;39.35;7.15;;;;;;;29.30;54.33;99451.25;1704205;84;21272;-82
2021/06/26 05:39:12;;;;;;;42.78;7.80;;;;;;;29.47;51.53;99448.55;1704149;84;21310;-82
2021/06/26 05:42:19;;;;;;;54.10;8.65;;;;;;;29.47;51.53;99448.55;1704234;84;21882;-82
2021/06/26 05:45:23;;;;;;;53.85;8.50;;;;;;;29.53;49.73;99436.56;1705004;83;21307;-82
2021/06/26 05:48:29;;;;;;;38.88;7.75;;;;;;;29.51;50.21;99432.67;1772039;81;21260;-82
2021/06/26 05:51:34;;;;;;;55.25;8.25;;;;;;;29.56;49.76;99435.96;1706074;84;21276;-82
2021/06/26 05:54:39;;;;;;;55.30;7.97;;;;;;;29.66;50.28;99441.31;1771775;81;21666;-82
2021/06/26 05:57:45;;;;;;;49.35;7.83;;;;;;;29.78;50.15;99440.14;1706048;84;21797;-82
2021/06/26 06:00:51;;;;;;;54.48;7.60;;;;;;;29.91;50.11;99441.74;1772118;81;21217;-82
2021/06/26 06:03:56;;;;;;;46.58;7.62;;;;;;;30.06;48.08;99434.24;1705944;84;21811;-82
2021/06/26 06:07:02;;;;;;;49.13;7.62;;;;;;;30.21;47.97;99438.07;1772069;81;21259;-81
2021/06/26 06:10:06;;;;;;;49.30;7.78;;;;;;;30.36;49.05;99435.95;1705966;84;21360;-81
2021/06/26 06:13:11;;;;;;;52.15;7.42;;;;;;;30.52;47.65;99448.41;1772163;81;21252;-81
2021/06/26 06:16:17;;;;;;;47.08;7.92;;;;;;;30.72;47.24;99443.55;1705899;84;21320;-81
2021/06/26 06:19:22;;;;;;;42.83;7.00;;;;;;;30.97;46.48;99446.73;1772080;81;21264;-81
2021/06/26 06:22:28;;;;;;;40.67;7.72;;;;;;;31.10;46.52;99441.49;1705910;84;21173;-81
2021/06/26 06:25:33;;;;;;;47.78;7.65;;;;;;;31.17;47.56;99443.21;1771264;81;21185;-81
2021/06/26 06:28:39;;;;;;;43.75;7.20;;;;;;;31.16;47.74;99444.38;1772062;81;21314;-81
2021/06/26 06:31:44;;;;;;;42.93;7.78;;;;;;;31.20;48.46;99438.31;1705927;84;21272;-82
2021/06/26 06:34:51;;;;;;;44.90;6.87;;;;;;;31.27;48.53;99439.23;1772021;81;21331;-81
2021/06/26 06:37:56;;;;;;;48.45;6.30;;;;;;;31.34;48.30;99436.75;1772019;81;21799;-82
2021/06/26 06:41:01;;;;;;;33.45;7.75;;;;;;;31.39;49.27;99429.50;1705854;84;21315;-82
2021/06/26 06:44:07;;;;;;;36.58;7.22;;;;;;;31.45;49.72;99424.49;1772067;81;21259;-81
2021/06/26 06:47:12;;;;;;;35.17;7.22;;;;;;;31.49;48.98;99412.77;1689301;84;21338;-81
2021/06/26 06:50:17;;;;;;;34.65;6.47;;;;;;;31.56;49.61;99415.89;1693965;85;21266;-81
2021/06/26 06:53:22;;;;;;;31.35;6.03;;;;;;;31.63;48.86;99417.62;1716180;83;21261;-81
2021/06/26 06:56:28;;;;;;;30.35;5.83;;;;;;;31.61;48.54;99420.53;1715146;83;21307;-82
2021/06/26 06:59:33;;;;;;;28.35;5.08;;;;;;;31.54;47.33;99412.00;1716193;83;21684;-81
2021/06/26 07:02:38;;;;;;;37.73;6.53;;;;;;;31.54;47.84;99414.82;1716199;83;21170;-82
2021/06/26 07:05:44;;;;;;;37.40;6.25;;;;;;;31.55;50.84;99410.00;1716149;83;21200;-82
2021/06/26 07:08:51;;;;;;;47.88;7.20;;;;;;;31.57;51.77;99413.30;1716190;83;21165;-82
2021/06/26 07:11:58;;;;;;;25.32;5.20;;;;;;;31.53;51.16;99418.00;1715569;83;21208;-81
2021/06/26 07:15:04;;;;;;;33.42;5.60;;;;;;;31.49;50.32;99415.01;1716154;83;21165;-82
2021/06/26 07:18:09;;;;;;;28.30;5.35;;;;;;;31.40;48.76;99411.38;1716166;83;21926;-82
2021/06/26 07:21:14;;;;;;;44.13;7.03;;;;;;;31.37;49.59;99414.03;1716190;83;21236;-82
2021/06/26 07:24:19;;;;;;;39.05;7.25;;;;;;;31.36;49.92;99408.97;1716243;83;21268;-82
2021/06/26 07:27:25;;;;;;;34.53;5.47;;;;;;;31.40;49.41;99409.14;1715988;83;21193;-82
2021/06/26 07:30:31;;;;;;;45.38;7.60;;;;;;;31.42;50.63;99402.55;1716212;83;21735;-82
2021/06/26 07:33:36;;;;;;;36.55;7.62;;;;;;;31.41;53.10;99396.66;1716199;83;21628;-82
2021/06/26 07:36:42;;;;;;;40.12;6.78;;;;;;;31.42;54.48;99398.31;1714690;83;21185;-82
2021/06/26 07:39:48;;;;;;;36.30;7.40;;;;;;;31.40;54.38;99396.42;1716153;83;21164;-82
2021/06/26 07:42:56;;;;;;;50.23;7.78;;;;;;;31.43;54.09;99393.77;1715891;83;21886;-82
2021/06/26 07:46:02;;;;;;;40.08;8.00;;;;;;;31.53;54.31;99391.15;1717866;82;21728;-82
2021/06/26 07:49:09;;;;;;;44.55;8.23;;;;;;;31.63;53.59;99392.19;1701952;84;21320;-82
2021/06/26 07:52:15;;;;;;;38.33;6.33;;;;;;;31.83;51.67;99394.04;1731109;83;21785;-82
2021/06/26 07:55:20;;;;;;;35.58;7.22;;;;;;;32.00;50.28;99396.78;1731104;83;21271;-82
2021/06/26 07:58:34;;;;;;;40.28;6.70;;;;;;;32.20;49.68;99398.81;1701964;84;21165;-82
2021/06/26 08:01:39;;;;;;;48.20;7.33;;;;;;;32.46;47.73;99396.41;1731109;83;21763;-82
2021/06/26 08:04:45;;;;;;;35.88;7.37;;;;;;;32.66;47.93;99396.20;1731088;83;21229;-82
2021/06/26 08:07:52;;;;;;;37.80;8.18;;;;;;;32.68;48.07;99389.00;1700298;84;21700;-82
2021/06/26 08:10:58;;;;;;;37.95;8.48;;;;;;;32.64;49.02;99378.72;1729690;83;21669;-82
2021/06/26 08:14:03;;;;;;;47.50;10.25;;;;;;;32.64;49.98;99380.95;1731276;83;21558;-82
2021/06/26 08:17:10;;;;;;;54.13;12.88;;;;;;;32.70;50.12;99373.93;1721229;83;21358;-82
2021/06/26 08:20:16;;;;;;;42.73;12.07;;;;;;;32.78;49.18;99373.00;1701744;84;21324;-82
2021/06/26 08:23:21;;;;;;;55.92;15.78;;;;;;;32.80;44.50;99365.00;1701975;84;21173;-82
2021/06/26 08:26:26;;;;;;;61.58;16.77;;;;;;;32.83;46.63;99354.38;1701952;84;21221;-82
2021/06/26 08:29:32;;;;;;;51.88;17.20;;;;;;;32.85;47.23;99371.63;1702016;84;21283;-82
2021/06/26 08:32:37;;;;;;;59.65;16.62;;;;;;;32.77;46.80;99360.02;1701986;84;21598;-82
2021/06/26 08:35:43;;;;;;;44.58;9.23;;;;;;;32.78;47.86;99360.85;1701773;84;21189;-82
2021/06/26 08:38:48;;;;;;;38.60;7.87;;;;;;;32.80;41.37;99358.52;1701743;84;21170;-82
2021/06/26 08:41:56;;;;;;;34.92;7.25;;;;;;;32.80;41.01;99360.76;1721243;83;21204;-82
2021/06/26 08:45:10;;;;;;;28.38;6.15;;;;;;;32.78;41.75;99361.67;1702072;84;21693;-82
2021/06/26 08:48:16;;;;;;;26.02;5.70;;;;;;;32.73;39.64;99367.55;1707602;84;21188;-82
2021/06/26 08:51:22;;;;;;;20.90;5.15;;;;;;;32.68;40.20;99362.11;1712228;84;21355;-82
2021/06/26 08:54:27;;;;;;;25.88;4.85;;;;;;;32.62;41.02;99364.92;1715664;83;21308;-82
2021/06/26 08:57:44;;;;;;;32.93;6.17;;;;;;;32.46;42.38;99365.28;1713765;84;21319;-82
2021/06/26 09:00:50;;;;;;;26.30;5.45;;;;;;;32.29;43.35;99357.74;1743671;82;21790;-82
2021/06/26 09:03:55;;;;;;;17.87;5.00;;;;;;;32.23;43.82;99347.22;1714124;84;21196;-82
2021/06/26 09:07:05;;;;;;;25.72;5.03;;;;;;;32.27;43.92;99347.34;1714397;83;21323;-82
2021/06/26 09:10:27;;;;;;;31.12;5.75;;;;;;;32.27;44.62;99348.16;1713115;84;21312;-82
2021/06/26 09:13:35;;;;;;;21.87;4.80;;;;;;;32.33;44.10;99343.16;1712500;84;21846;-82
2021/06/26 09:16:41;;;;;;;30.15;5.95;;;;;;;32.37;44.41;99339.91;1715569;83;21279;-82
2021/06/26 09:19:46;;;;;;;29.18;5.40;;;;;;;32.41;45.91;99332.36;1714214;84;21827;-82
2021/06/26 09:22:55;;;;;;;20.52;3.75;;;;;;;32.51;42.91;99332.53;1715583;83;21287;-82
2021/06/26 09:26:03;;;;;;;27.37;5.53;;;;;;;32.57;43.83;99326.92;1714116;84;21165;-82
2021/06/26 09:29:25;;;;;;;40.63;5.87;;;;;;;32.53;43.72;99316.88;1715484;83;21925;-82
2021/06/26 09:32:32;;;;;;;33.85;5.40;;;;;;;32.55;42.62;99314.51;1713895;84;21739;-82
2021/06/26 09:35:37;;;;;;;21.48;5.10;;;;;;;32.59;42.15;99311.82;1712596;84;21323;-82
2021/06/26 09:38:46;;;;;;;23.80;4.80;;;;;;;32.62;44.78;99297.58;1714178;83;21280;-82
2021/06/26 09:41:57;;;;;;;31.68;5.22;;;;;;;32.69;44.07;99304.90;1713350;84;21303;-82
2021/06/26 09:45:15;;;;;;;31.42;5.65;;;;;;;32.74;43.56;99303.27;1711570;84;21204;-82
2021/06/26 09:48:20;;;;;;;23.98;4.75;;;;;;;32.80;44.92;99305.55;1710189;83;21414;-82
2021/06/26 09:51:34;;;;;;;27.95;4.92;;;;;;;32.89;44.68;99300.36;1695169;84;21713;-82
2021/06/26 09:54:39;;;;;;;28.57;5.78;;;;;;;32.91;45.24;99303.72;1696186;84;21285;-82
2021/06/26 09:57:44;;;;;;;28.45;4.72;;;;;;;32.97;45.99;99307.97;1696165;84;21316;-82
2021/06/26 10:00:50;;;;;;;30.30;5.45;;;;;;;33.03;44.44;99312.23;1696151;84;21321;-82
2021/06/26 10:03:59;;;;;;;28.57;5.33;;;;;;;33.05;44.87;99309.89;1696012;84;21333;-82
2021/06/26 10:07:05;;;;;;;34.33;5.37;;;;;;;33.05;46.05;99306.46;1694868;84;21348;-82
2021/06/26 10:10:12;;;;;;;28.38;5.47;;;;;;;33.06;45.87;99308.11;1694687;84;21704;-82
2021/06/26 10:13:21;;;;;;;34.73;6.45;;;;;;;33.04;46.38;99309.06;1696097;84;21276;-82
2021/06/26 10:16:26;;;;;;;22.32;4.50;;;;;;;33.05;46.11;99303.63;1696156;84;21317;-82
2021/06/26 10:19:32;;;;;;;33.08;5.85;;;;;;;33.11;46.47;99291.48;1696082;84;21320;-82
2021/06/26 10:22:37;;;;;;;29.48;6.58;;;;;;;33.17;46.42;99294.91;1696120;84;21349;-82
2021/06/26 10:25:44;;;;;;;29.82;5.85;;;;;;;33.19;48.65;99303.30;1696340;84;21276;-82
2021/06/26 10:29:01;;;;;;;23.05;4.90;;;;;;;32.94;48.53;99297.36;1696169;84;21205;-82
2021/06/26 10:32:24;;;;;;;13.08;3.77;;;;;;;32.75;50.06;99292.20;1696242;84;21272;-82
2021/06/26 10:35:30;;;;;;;15.53;4.65;;;;;;;32.62;50.47;99301.23;1696323;84;21273;-82
2021/06/26 10:38:36;;;;;;;15.25;3.87;;;;;;;32.52;52.23;99299.66;1696224;84;21699;-82
2021/06/26 10:41:43;;;;;;;21.60;4.40;;;;;;;32.49;52.16;99300.34;1696254;84;21800;-82
2021/06/26 10:44:59;;;;;;;13.55;4.12;;;;;;;32.40;51.48;99307.25;1695262;84;21170;-82
2021/06/26 10:48:04;;;;;;;16.75;4.20;;;;;;;32.25;50.66;99305.84;1696290;84;21170;-82
2021/06/26 10:51:10;;;;;;;8.48;3.20;;;;;;;32.15;50.24;99307.09;1703960;84;21323;-82
2021/06/26 10:54:24;;;;;;;21.07;4.87;;;;;;;32.08;49.19;99318.70;1706873;84;21323;-82
2021/06/26 10:57:30;;;;;;;17.52;4.37;;;;;;;32.00;48.37;99316.19;1707296;84;21843;-82
2021/06/26 11:00:44;;;;;;;19.40;3.80;;;;;;;31.89;48.55;99330.47;1707065;84;21863;-82
2021/06/26 11:03:49;;;;;;;7.40;3.83;;;;;;;31.80;48.19;99321.41;1707395;84;21284;-82
2021/06/26 11:06:56;;;;;;;14.60;4.00;;;;;;;31.78;48.83;99316.70;1706827;84;21315;-82
2021/06/26 11:10:07;;;;;;;9.58;3.50;;;;;;;31.63;48.97;99303.16;1707282;84;21299;-82
2021/06/26 11:13:14;;;;;;;18.62;4.17;;;;;;;31.50;48.30;99315.52;1705891;84;21168;-82
2021/06/26 11:16:22;;;;;;;16.93;4.58;;;;;;;31.40;48.20;99298.37;1681611;83;21261;-82
2021/06/26 11:19:28;;;;;;;9.10;3.98;;;;;;;31.35;48.67;99309.03;1769088;81;21382;-82
2021/06/26 11:22:34;;;;;;;11.40;4.00;;;;;;;31.33;47.44;99312.77;1771304;81;21308;-82
2021/06/26 11:25:40;;;;;;;12.53;3.58;;;;;;;31.29;48.23;99321.11;1771360;81;21811;-82
2021/06/26 11:28:49;;;;;;;12.33;4.33;;;;;;;31.30;46.93;99319.34;1771337;81;21165;-82
2021/06/26 11:31:55;;;;;;;10.98;3.55;;;;;;;31.29;46.46;99330.41;1769853;81;21745;-82
2021/06/26 11:35:17;;;;;;;15.35;3.85;;;;;;;31.26;47.17;99324.56;1771331;81;21161;-82
2021/06/26 11:38:24;;;;;;;11.35;4.45;;;;;;;31.25;48.30;99320.91;1771343;81;21268;-82
2021/06/26 11:41:31;;;;;;;18.37;5.15;;;;;;;31.29;50.23;99324.76;1771368;81;21149;-82
2021/06/26 11:44:43;;;;;;;9.80;3.30;;;;;;;31.41;49.00;99318.97;1771322;81;21154;-82
2021/06/26 11:47:48;;;;;;;13.70;3.65;;;;;;;31.53;48.21;99316.27;1771461;81;21153;-82
2021/06/26 11:51:12;;;;;;;8.60;3.50;;;;;;;31.60;48.47;99311.48;1770058;81;21295;-82
2021/06/26 11:54:27;;;;;;;10.95;3.50;;;;;;;31.65;47.93;99305.05;1771383;81;21260;-82
2021/06/26 11:57:36;;;;;;;13.15;3.55;;;;;;;31.67;47.46;99303.31;1771337;81;21209;-82
2021/06/26 12:00:40;;;;;;;11.65;3.37;;;;;;;31.63;45.41;99298.92;1770986;81;21161;-82
2021/06/26 12:03:46;;;;;;;17.10;3.90;;;;;;;31.57;45.70;99296.02;1771308;81;21185;-82
2021/06/26 12:06:52;;;;;;;12.07;3.50;;;;;;;31.56;47.42;99294.38;1771342;81;21153;-82
2021/06/26 12:09:58;;;;;;;8.48;2.90;;;;;;;31.62;47.35;99295.00;1771344;81;21261;-82
2021/06/26 12:13:03;;;;;;;16.90;3.85;;;;;;;31.65;46.56;99290.91;1771317;81;21673;-82
2021/06/26 12:16:10;;;;;;;18.15;3.87;;;;;;;31.65;45.99;99281.02;1770047;81;21161;-82
2021/06/26 12:19:17;;;;;;;11.80;3.37;;;;;;;31.67;46.27;99280.11;1769759;81;21204;-82
2021/06/26 12:22:30;;;;;;;8.70;3.05;;;;;;;31.68;45.47;99280.34;1771302;81;21713;-82
2021/06/26 12:25:42;;;;;;;11.53;3.25;;;;;;;31.70;45.83;99281.41;1771267;81;21605;-82
2021/06/26 12:28:48;;;;;;;9.68;3.58;;;;;;;31.73;46.64;99280.15;1771310;81;21213;-82
2021/06/26 12:31:53;;;;;;;10.85;3.42;;;;;;;31.74;45.22;99269.08;1771247;81;21755;-82
2021/06/26 12:34:59;;;;;;;11.30;3.50;;;;;;;31.71;45.73;99270.34;1771328;81;21312;-82
2021/06/26 12:38:04;;;;;;;14.90;3.58;;;;;;;31.73;45.56;99273.08;1771298;81;21747;-82
2021/06/26 12:41:09;;;;;;;10.45;3.02;;;;;;;31.74;46.04;99267.66;1771187;81;21280;-82
2021/06/26 12:44:16;;;;;;;10.80;3.15;;;;;;;31.74;46.10;99267.66;1771269;81;21161;-82
2021/06/26 12:47:30;;;;;;;16.35;3.58;;;;;;;31.75;45.82;99262.84;1729460;81;21332;-82
2021/06/26 12:50:36;;;;;;;15.90;3.35;;;;;;;31.74;46.46;99249.88;1771428;81;21157;-82
2021/06/26 12:53:47;;;;;;;11.97;3.83;;;;;;;31.76;46.66;99243.28;1768680;81;21299;-82
2021/06/26 12:56:54;;;;;;;12.80;3.25;;;;;;;31.73;46.79;99248.23;1771286;81;21276;-82
2021/06/26 12:59:59;;;;;;;13.30;3.60;;;;;;;31.70;46.53;99242.66;1771233;81;21344;-82
2021/06/26 13:03:04;;;;;;;13.58;3.33;;;;;;;31.69;49.25;99235.95;1771164;81;21192;-82
2021/06/26 13:06:16;;;;;;;13.43;3.58;;;;;;;31.69;47.38;99234.54;1771326;81;21621;-82
2021/06/26 13:09:22;;;;;;;14.35;3.25;;;;;;;31.68;48.24;99236.54;1771317;81;21304;-82
2021/06/26 13:12:32;;;;;;;8.63;3.50;;;;;;;31.68;50.36;99237.95;1771108;81;21153;-82
2021/06/26 13:15:38;;;;;;;6.50;2.77;;;;;;;31.69;46.43;99238.77;1771317;81;21212;-82
2021/06/26 13:18:44;;;;;;;13.93;2.98;;;;;;;31.66;47.89;99232.39;1768611;81;21744;-82
2021/06/26 13:21:59;;;;;;;18.75;3.37;;;;;;;31.62;47.51;99229.44;1769048;81;21217;-82
2021/06/26 13:25:05;;;;;;;9.70;3.20;;;;;;;31.56;45.16;99225.14;1769013;81;21300;-82
2021/06/26 13:28:10;;;;;;;11.57;3.42;;;;;;;31.51;44.79;99223.92;1770328;81;21819;-82
2021/06/26 13:31:16;;;;;;;14.43;4.17;;;;;;;31.51;45.91;99229.58;1769621;81;21204;-82
2021/06/26 13:34:23;;;;;;;13.20;3.20;;;;;;;31.50;47.33;99227.92;1770349;81;21371;-82
2021/06/26 13:37:28;;;;;;;16.93;3.85;;;;;;;31.49;45.30;99219.22;1768897;81;21292;-82
2021/06/26 13:40:34;;;;;;;16.17;3.40;;;;;;;31.44;45.96;99220.83;1770132;81;21867;-82
2021/06/26 13:43:41;;;;;;;16.42;3.33;;;;;;;31.40;45.12;99224.09;1770321;81;21185;-82
2021/06/26 13:46:47;;;;;;;14.33;3.05;;;;;;;31.39;46.02;99227.50;1770323;81;21288;-82
2021/06/26 13:49:52;;;;;;;10.93;3.20;;;;;;;31.39;44.92;99224.67;1770254;81;21170;-82
2021/06/26 13:52:58;;;;;;;20.52;3.98;;;;;;;31.38;44.80;99222.17;1769757;81;21954;-82
2021/06/26 13:56:05;;;;;;;11.73;4.15;;;;;;;31.36;45.01;99220.28;1776049;81;21343;-82
2021/06/26 13:59:10;;;;;;;12.05;3.58;;;;;;;31.35;44.80;99212.98;1774548;81;21244;-82
2021/06/26 14:02:16;;;;;;;12.90;3.58;;;;;;;31.36;44.70;99218.28;1774490;81;21763;-82
2021/06/26 14:05:22;;;;;;;16.15;3.83;;;;;;;31.36;45.16;99211.22;1776949;81;21228;-82
2021/06/26 14:08:28;;;;;;;15.10;3.70;;;;;;;31.37;45.98;99210.63;1775292;81;21169;-82
2021/06/26 14:11:34;;;;;;;10.28;4.00;;;;;;;31.37;47.29;99202.16;1776805;81;21173;-82
2021/06/26 14:14:40;;;;;;;15.75;4.12;;;;;;;31.39;48.27;99204.07;1775959;81;21827;-82
2021/06/26 14:17:45;;;;;;;17.85;4.15;;;;;;;31.38;49.29;99202.39;1774069;81;21339;-82
2021/06/26 14:20:51;;;;;;;12.05;4.30;;;;;;;31.34;48.25;99200.03;1775660;81;21307;-82
2021/06/26 14:23:57;;;;;;;17.40;4.90;;;;;;;31.30;49.81;99197.88;1775782;81;21727;-82
2021/06/26 14:27:02;;;;;;;17.40;5.37;;;;;;;31.28;49.12;99193.14;1774458;80;21192;-82